createdAt,value
2023-01-17T00:01:54.058Z,32.92
2023-01-17T00:04:41.223Z,15.65
2023-01-17T00:07:29.691Z,22.75
2023-01-17T00:09:58.827Z,23.58
2023-01-17T00:12:29.020Z,15.95
2023-01-17T00:14:58.964Z,27.73
2023-01-17T00:17:28.432Z,26.58
2023-01-17T00:20:18.651Z,31.40
2023-01-17T00:23:05.693Z,35.30
2023-01-17T00:25:53.481Z,25.95
2023-01-17T00:28:20.459Z,17.13
2023-01-17T00:30:47.744Z,26.35
2023-01-17T00:33:14.924Z,17.63
2023-01-17T00:35:43.454Z,25.52
2023-01-17T00:38:15.463Z,28.92
2023-01-17T00:40:44.000Z,20.15
2023-01-17T00:43:30.972Z,25.48
2023-01-17T00:46:16.504Z,26.48
2023-01-17T00:49:04.695Z,30.30
2023-01-17T00:51:53.016Z,22.02
2023-01-17T00:54:39.193Z,28.67
2023-01-17T00:57:26.678Z,28.65
2023-01-17T01:00:12.488Z,27.75
2023-01-17T01:02:58.966Z,65.45
2023-01-17T01:05:45.201Z,31.50
2023-01-17T01:08:40.313Z,42.05
2023-01-17T01:11:27.993Z,16.13
2023-01-17T01:14:14.032Z,6.82
2023-01-17T01:16:59.476Z,30.38
2023-01-17T01:19:45.098Z,29.05
2023-01-17T01:22:31.280Z,36.42
2023-01-17T01:25:18.295Z,41.38
2023-01-17T01:28:04.070Z,36.95
2023-01-17T01:30:51.067Z,27.17
2023-01-17T01:33:21.453Z,40.88
2023-01-17T01:35:51.000Z,25.70
2023-01-17T01:38:20.043Z,22.00
2023-01-17T01:40:52.684Z,29.00
2023-01-17T01:43:22.242Z,29.10
2023-01-17T01:45:54.165Z,29.80
2023-01-17T01:48:34.834Z,30.83
2023-01-17T01:51:06.086Z,38.28
2023-01-17T01:53:37.369Z,41.15
2023-01-17T01:56:11.114Z,46.55
2023-01-17T01:58:40.191Z,46.42
2023-01-17T02:01:09.525Z,42.08
2023-01-17T02:03:39.539Z,34.30
2023-01-17T02:06:16.265Z,39.90
2023-01-17T02:08:44.741Z,36.60
2023-01-17T02:11:14.621Z,32.60
2023-01-17T02:13:43.342Z,32.00
2023-01-17T02:16:19.095Z,33.95
2023-01-17T02:18:54.395Z,56.25
2023-01-17T02:21:27.810Z,36.90
2023-01-17T02:24:31.435Z,47.10
2023-01-17T02:27:06.201Z,43.97
2023-01-17T02:30:18.750Z,26.15
2023-01-17T02:32:54.967Z,38.17
2023-01-17T02:35:29.986Z,27.50
2023-01-17T02:38:04.689Z,31.40
2023-01-17T02:40:36.179Z,34.47
2023-01-17T02:43:10.817Z,47.78
2023-01-17T02:45:39.326Z,36.08
2023-01-17T02:48:10.902Z,31.05
2023-01-17T02:50:53.848Z,31.48
2023-01-17T02:53:31.917Z,26.60
2023-01-17T02:56:07.638Z,25.73
2023-01-17T02:58:55.093Z,30.77
2023-01-17T03:01:30.217Z,22.73
2023-01-17T03:04:03.375Z,21.42
2023-01-17T03:06:34.975Z,39.53
2023-01-17T03:09:03.716Z,36.45
2023-01-17T03:11:32.039Z,53.53
2023-01-17T03:14:02.622Z,37.88
2023-01-17T03:16:33.909Z,48.60
2023-01-17T03:19:03.647Z,24.55
2023-01-17T03:21:31.978Z,23.05
2023-01-17T03:24:00.318Z,29.40
2023-01-17T03:26:29.121Z,27.05
2023-01-17T03:28:57.411Z,49.05
2023-01-17T03:31:26.116Z,33.05
2023-01-17T03:33:54.376Z,20.33
2023-01-17T03:36:24.009Z,35.75
2023-01-17T03:38:52.333Z,33.28
2023-01-17T03:41:20.630Z,30.83
2023-01-17T03:43:50.743Z,39.72
2023-01-17T03:46:23.082Z,39.65
2023-01-17T03:48:51.464Z,32.27
2023-01-17T03:51:20.092Z,35.53
2023-01-17T03:53:52.235Z,39.00
2023-01-17T03:56:20.558Z,39.75
2023-01-17T03:58:49.016Z,41.92
2023-01-17T04:01:17.472Z,27.90
2023-01-17T04:03:47.394Z,28.90
2023-01-17T04:06:15.647Z,33.00
2023-01-17T04:08:44.039Z,29.65
2023-01-17T04:11:13.779Z,39.97
2023-01-17T04:13:42.019Z,33.17
2023-01-17T04:16:12.296Z,39.53
2023-01-17T04:18:40.679Z,20.05
2023-01-17T04:21:09.205Z,46.80
2023-01-17T04:23:37.669Z,21.33
2023-01-17T04:26:06.271Z,18.65
2023-01-17T04:28:35.942Z,31.95
2023-01-17T04:31:04.911Z,24.38
2023-01-17T04:33:33.196Z,35.28
2023-01-17T04:36:01.540Z,32.42
2023-01-17T04:38:29.983Z,42.13
2023-01-17T04:40:58.218Z,33.30
2023-01-17T04:43:26.518Z,27.35
2023-01-17T04:46:01.835Z,44.85
2023-01-17T04:48:31.525Z,38.25
2023-01-17T04:51:03.670Z,35.55
2023-01-17T04:53:34.240Z,31.33
2023-01-17T04:56:02.949Z,28.50
2023-01-17T04:58:31.684Z,30.58
2023-01-17T05:01:04.361Z,29.25
2023-01-17T05:03:33.019Z,28.38
2023-01-17T05:06:01.346Z,34.35
2023-01-17T05:08:33.263Z,42.60
2023-01-17T05:11:01.516Z,32.80
2023-01-17T05:13:31.339Z,47.28
2023-01-17T05:15:59.853Z,45.88
2023-01-17T05:18:29.659Z,33.83
2023-01-17T05:21:03.010Z,40.50
2023-01-17T05:25:59.735Z,37.88
2023-01-17T05:28:28.149Z,17.38
2023-01-17T05:30:56.559Z,24.55
2023-01-17T05:33:25.490Z,37.60
2023-01-17T05:35:55.285Z,25.70
2023-01-17T05:38:25.131Z,34.08
2023-01-17T05:40:53.435Z,39.75
2023-01-17T05:43:22.273Z,26.17
2023-01-17T05:45:50.868Z,29.25
2023-01-17T05:48:19.166Z,31.88
2023-01-17T05:50:47.647Z,44.63
2023-01-17T05:53:18.264Z,34.97
2023-01-17T05:55:48.009Z,24.10
2023-01-17T05:58:18.199Z,22.33
2023-01-17T06:00:48.430Z,34.97
2023-01-17T06:03:17.241Z,25.33
2023-01-17T06:05:47.028Z,33.38
2023-01-17T06:08:17.255Z,33.95
2023-01-17T06:10:45.787Z,37.95
2023-01-17T06:13:16.858Z,29.83
2023-01-17T06:15:48.658Z,17.90
2023-01-17T06:18:18.049Z,30.63
2023-01-17T06:20:46.490Z,29.33
2023-01-17T06:23:17.175Z,24.73
2023-01-17T06:25:47.154Z,30.48
2023-01-17T06:28:16.665Z,14.70
2023-01-17T06:30:45.268Z,30.95
2023-01-17T06:33:14.074Z,21.25
2023-01-17T06:35:49.295Z,31.05
2023-01-17T06:38:21.772Z,34.08
2023-01-17T06:40:50.228Z,23.88
2023-01-17T06:43:19.906Z,23.00
2023-01-17T06:45:51.086Z,27.85
2023-01-17T06:48:19.624Z,18.92
2023-01-17T06:50:49.886Z,27.40
2023-01-17T06:53:18.281Z,36.53
2023-01-17T06:55:48.099Z,27.60
2023-01-17T06:58:16.393Z,28.48
2023-01-17T07:00:46.693Z,13.32
2023-01-17T07:03:20.363Z,35.47
2023-01-17T07:05:49.128Z,27.77
2023-01-17T07:08:18.159Z,31.63
2023-01-17T07:10:50.559Z,28.52
2023-01-17T07:13:18.927Z,17.17
2023-01-17T07:15:52.933Z,35.03
2023-01-17T07:18:23.637Z,22.02
2023-01-17T07:20:52.203Z,30.05
2023-01-17T07:23:21.896Z,26.70
2023-01-17T07:25:55.695Z,26.48
2023-01-17T07:28:24.360Z,29.50
2023-01-17T07:30:53.007Z,22.75
2023-01-17T07:33:24.623Z,37.83
2023-01-17T07:35:53.921Z,45.47
2023-01-17T07:38:23.146Z,33.70
2023-01-17T07:40:51.554Z,32.08
2023-01-17T07:43:32.995Z,32.42
2023-01-17T07:46:02.245Z,25.60
2023-01-17T07:48:32.158Z,47.83
2023-01-17T07:51:06.371Z,33.35
2023-01-17T07:53:34.703Z,45.72
2023-01-17T07:56:04.441Z,25.80
2023-01-17T07:58:35.000Z,22.67
2023-01-17T08:01:04.434Z,42.45
2023-01-17T08:03:36.445Z,45.47
2023-01-17T08:06:09.323Z,40.15
2023-01-17T08:08:37.824Z,45.60
2023-01-17T08:11:06.473Z,45.65
2023-01-17T08:13:36.212Z,52.03
2023-01-17T08:16:08.107Z,26.55
2023-01-17T08:18:36.611Z,35.88
2023-01-17T08:21:14.516Z,37.00
2023-01-17T08:23:42.796Z,38.58
2023-01-17T08:26:12.385Z,28.75
2023-01-17T08:28:42.283Z,30.13
2023-01-17T08:31:11.422Z,33.30
2023-01-17T08:33:39.950Z,42.75
2023-01-17T08:36:10.816Z,41.20
2023-01-17T08:38:39.266Z,47.13
2023-01-17T08:41:10.201Z,33.88
2023-01-17T08:43:38.522Z,61.13
2023-01-17T08:46:08.290Z,55.00
2023-01-17T08:48:36.845Z,44.75
2023-01-17T08:51:05.452Z,59.85
2023-01-17T08:53:33.765Z,23.92
2023-01-17T08:56:03.421Z,37.15
2023-01-17T08:58:33.419Z,37.10
2023-01-17T09:01:02.972Z,38.60
2023-01-17T09:03:33.206Z,41.40
2023-01-17T09:06:06.150Z,41.88
2023-01-17T09:08:35.612Z,40.60
2023-01-17T09:11:05.180Z,44.95
2023-01-17T09:13:33.581Z,51.35
2023-01-17T09:16:02.277Z,36.72
2023-01-17T09:18:33.354Z,42.97
2023-01-17T09:21:01.715Z,45.35
2023-01-17T09:23:31.748Z,51.65
2023-01-17T09:26:01.253Z,38.72
2023-01-17T09:28:33.378Z,45.30
2023-01-17T09:31:08.237Z,43.13
2023-01-17T09:33:38.468Z,27.95
2023-01-17T09:36:10.279Z,58.03
2023-01-17T09:38:39.146Z,45.30
2023-01-17T09:41:22.150Z,34.80
2023-01-17T09:43:53.290Z,33.65
2023-01-17T09:46:24.129Z,30.02
2023-01-17T09:49:04.071Z,51.53
2023-01-17T09:51:32.957Z,52.22
2023-01-17T09:54:02.566Z,31.38
2023-01-17T09:56:33.669Z,30.38
2023-01-17T09:59:32.710Z,42.28
2023-01-17T10:02:18.572Z,35.47
2023-01-17T10:04:58.240Z,30.50
2023-01-17T10:07:35.433Z,28.73
2023-01-17T10:10:23.591Z,30.58
2023-01-17T10:12:56.642Z,40.97
2023-01-17T10:15:49.023Z,35.58
2023-01-17T10:18:47.349Z,40.55
2023-01-17T10:21:24.311Z,53.03
2023-01-17T10:24:16.540Z,33.15
2023-01-17T10:26:48.675Z,39.38
2023-01-17T10:29:20.941Z,32.03
2023-01-17T10:31:52.777Z,31.33
2023-01-17T10:34:25.147Z,34.05
2023-01-17T10:37:00.472Z,28.07
2023-01-17T10:39:32.855Z,27.92
2023-01-17T10:42:09.144Z,34.75
2023-01-17T10:44:48.142Z,35.63
2023-01-17T10:47:21.334Z,34.55
2023-01-17T10:49:52.178Z,42.92
2023-01-17T10:52:27.666Z,23.17
2023-01-17T10:55:05.258Z,39.60
2023-01-17T10:57:41.173Z,28.40
2023-01-17T11:00:31.247Z,31.95
2023-01-17T11:03:00.142Z,26.02
2023-01-17T11:05:31.283Z,30.60
2023-01-17T11:08:02.879Z,40.47
2023-01-17T11:10:38.244Z,46.30
2023-01-17T11:13:08.380Z,43.25
2023-01-17T11:15:40.763Z,37.67
2023-01-17T11:18:17.049Z,36.33
2023-01-17T11:20:45.693Z,42.35
2023-01-17T11:23:22.189Z,41.03
2023-01-17T11:25:51.949Z,35.47
2023-01-17T11:28:26.167Z,32.15
2023-01-17T11:30:57.072Z,20.55
2023-01-17T11:33:45.445Z,47.40
2023-01-17T11:36:27.561Z,31.38
2023-01-17T11:38:58.817Z,32.38
2023-01-17T11:41:28.341Z,33.50
2023-01-17T11:43:59.451Z,37.20
2023-01-17T11:46:29.922Z,40.63
2023-01-17T11:48:59.714Z,46.08
2023-01-17T11:51:30.211Z,29.73
2023-01-17T11:54:10.105Z,34.50
2023-01-17T11:56:40.805Z,34.42
2023-01-17T11:59:20.287Z,22.60
2023-01-17T12:01:56.075Z,35.47
2023-01-17T12:04:26.141Z,29.98
2023-01-17T12:07:17.275Z,25.65
2023-01-17T12:09:53.811Z,25.15
2023-01-17T12:12:47.430Z,22.55
2023-01-17T12:15:28.160Z,34.05
2023-01-17T12:18:13.774Z,47.72
2023-01-17T12:20:49.687Z,48.15
2023-01-17T12:23:30.609Z,34.05
2023-01-17T12:26:09.747Z,29.98
2023-01-17T12:28:52.186Z,34.72
2023-01-17T12:31:27.747Z,32.45
2023-01-17T12:33:58.463Z,30.55
2023-01-17T12:36:40.284Z,30.30
2023-01-17T12:39:12.125Z,25.10
2023-01-17T12:41:54.218Z,35.13
2023-01-17T12:44:34.945Z,34.22
2023-01-17T12:47:07.739Z,32.80
2023-01-17T12:49:42.122Z,19.73
2023-01-17T12:52:15.533Z,22.92
2023-01-17T12:57:16.827Z,29.63
2023-01-17T12:59:49.586Z,14.77
2023-01-17T13:02:23.553Z,26.08
2023-01-17T13:04:59.004Z,29.35
2023-01-17T13:07:36.568Z,24.50
2023-01-17T13:10:19.213Z,29.77
2023-01-17T13:12:50.347Z,30.00
2023-01-17T13:15:21.158Z,25.60
2023-01-17T13:17:51.834Z,19.60
2023-01-17T13:20:28.979Z,24.38
2023-01-17T13:22:58.446Z,25.60
2023-01-17T13:25:35.250Z,28.17
2023-01-17T13:28:19.227Z,21.73
2023-01-17T13:30:58.507Z,29.63
2023-01-17T13:33:43.627Z,14.75
2023-01-17T13:36:30.073Z,14.10
2023-01-17T13:39:17.950Z,21.63
2023-01-17T13:41:49.246Z,18.48
2023-01-17T13:44:24.756Z,22.50
2023-01-17T13:47:02.059Z,17.20
2023-01-17T13:49:45.227Z,19.67
2023-01-17T13:52:33.213Z,21.67
2023-01-17T13:55:03.448Z,22.95
2023-01-17T13:57:40.914Z,13.15
2023-01-17T14:00:42.319Z,16.67
2023-01-17T14:03:13.295Z,16.77
2023-01-17T14:05:57.688Z,24.10
2023-01-17T14:08:27.451Z,16.85
2023-01-17T14:11:09.855Z,20.80
2023-01-17T14:13:39.730Z,21.58
2023-01-17T14:16:24.440Z,17.83
2023-01-17T14:18:54.727Z,25.90
2023-01-17T14:21:24.984Z,15.30
2023-01-17T14:23:58.700Z,17.63
2023-01-17T14:26:32.850Z,25.70
2023-01-17T14:29:39.655Z,18.88
2023-01-17T14:32:11.622Z,32.38
2023-01-17T14:34:41.694Z,13.50
2023-01-17T14:37:21.817Z,21.65
2023-01-17T14:39:51.842Z,34.85
2023-01-17T14:42:22.499Z,12.85
2023-01-17T14:44:53.926Z,20.52
2023-01-17T14:47:22.717Z,26.10
2023-01-17T14:50:10.880Z,24.85
2023-01-17T14:52:39.762Z,16.55
2023-01-17T14:55:16.713Z,27.52
2023-01-17T14:57:54.870Z,22.27
2023-01-17T15:00:25.904Z,18.73
2023-01-17T15:02:59.403Z,16.40
2023-01-17T15:05:32.934Z,20.75
2023-01-17T15:08:01.346Z,23.15
2023-01-17T15:10:31.759Z,25.23
2023-01-17T15:13:07.503Z,21.67
2023-01-17T15:15:38.632Z,16.10
2023-01-17T15:18:27.401Z,18.67
2023-01-17T15:21:00.555Z,30.98
2023-01-17T15:23:34.732Z,27.67
2023-01-17T15:26:04.906Z,23.35
2023-01-17T15:28:34.442Z,19.13
2023-01-17T15:31:08.944Z,21.73
2023-01-17T15:33:42.170Z,25.40
2023-01-17T15:36:25.016Z,18.30
2023-01-17T15:39:01.638Z,31.77
2023-01-17T15:41:35.097Z,25.15
2023-01-17T15:44:03.610Z,23.80
2023-01-17T15:46:34.508Z,25.88
2023-01-17T15:49:24.175Z,20.90
2023-01-17T15:51:56.037Z,30.33
2023-01-17T15:54:35.099Z,20.33
2023-01-17T15:57:05.101Z,21.33
2023-01-17T15:59:43.525Z,19.38
2023-01-17T16:02:27.461Z,19.98
2023-01-17T16:04:56.019Z,24.20
2023-01-17T16:07:31.976Z,20.85
2023-01-17T16:10:09.764Z,20.58
2023-01-17T16:12:38.107Z,19.83
2023-01-17T16:15:13.430Z,21.00
2023-01-17T16:17:43.595Z,19.13
2023-01-17T16:20:16.606Z,15.27
2023-01-17T16:22:46.749Z,21.42
2023-01-17T16:25:19.526Z,28.52
2023-01-17T16:27:50.768Z,17.98
2023-01-17T16:30:21.597Z,23.50
2023-01-17T16:32:50.753Z,17.90
2023-01-17T16:35:21.428Z,12.43
2023-01-17T16:37:52.639Z,19.23
2023-01-17T16:40:23.190Z,25.65
2023-01-17T16:42:52.075Z,19.58
2023-01-17T16:45:23.666Z,18.10
2023-01-17T16:47:56.070Z,19.83
2023-01-17T16:50:25.697Z,20.67
2023-01-17T16:52:57.216Z,14.70
2023-01-17T16:55:29.988Z,19.10
2023-01-17T16:58:00.665Z,24.50
2023-01-17T17:00:28.956Z,23.52
2023-01-17T17:02:57.350Z,25.38
2023-01-17T17:05:27.151Z,14.68
2023-01-17T17:07:57.113Z,10.10
2023-01-17T17:10:27.750Z,23.85
2023-01-17T17:12:56.055Z,17.25
2023-01-17T17:15:24.570Z,21.60
2023-01-17T17:17:55.221Z,17.23
2023-01-17T17:20:25.268Z,18.05
2023-01-17T17:22:53.900Z,16.35
2023-01-17T17:25:23.731Z,13.30
2023-01-17T17:27:52.598Z,15.90
2023-01-17T17:30:22.867Z,14.32
2023-01-17T17:32:51.286Z,16.60
2023-01-17T17:35:19.599Z,18.65
2023-01-17T17:37:47.898Z,18.80
2023-01-17T17:40:16.563Z,24.95
2023-01-17T17:42:46.247Z,16.77
2023-01-17T17:45:14.541Z,14.50
2023-01-17T17:47:44.699Z,19.42
2023-01-17T17:50:13.671Z,19.27
2023-01-17T17:52:44.410Z,14.25
2023-01-17T17:55:13.252Z,13.38
2023-01-17T17:57:41.560Z,17.45
2023-01-17T18:00:13.312Z,18.52
2023-01-17T18:03:04.023Z,16.20
2023-01-17T18:05:36.832Z,18.17
2023-01-17T18:08:07.846Z,15.63
2023-01-17T18:10:36.143Z,16.15
2023-01-17T18:13:04.556Z,11.68
2023-01-17T18:15:34.199Z,11.95
2023-01-17T18:18:06.660Z,11.88
2023-01-17T18:20:34.994Z,17.13
2023-01-17T18:23:03.758Z,8.48
2023-01-17T18:25:32.104Z,18.15
2023-01-17T18:28:00.387Z,15.35
2023-01-17T18:30:28.979Z,20.50
2023-01-17T18:32:58.818Z,17.13
2023-01-17T18:35:28.972Z,15.05
2023-01-17T18:37:57.722Z,9.43
2023-01-17T18:40:26.087Z,14.95
2023-01-17T18:42:54.758Z,14.57
2023-01-17T18:45:23.215Z,10.65
2023-01-17T18:47:51.736Z,15.38
2023-01-17T18:50:21.558Z,11.13
2023-01-17T18:52:49.844Z,9.98
2023-01-17T18:55:18.646Z,11.02
2023-01-17T18:57:47.190Z,15.90
2023-01-17T19:00:16.570Z,14.77
2023-01-17T19:02:53.937Z,11.70
2023-01-17T19:05:24.696Z,26.00
2023-01-17T19:07:53.257Z,14.88
2023-01-17T19:10:21.942Z,15.68
2023-01-17T19:12:50.275Z,9.65
2023-01-17T19:15:18.547Z,11.75
2023-01-17T19:17:46.891Z,14.60
2023-01-17T19:20:16.146Z,16.52
2023-01-17T19:22:45.817Z,16.98
2023-01-17T19:25:14.239Z,13.48
2023-01-17T19:27:43.606Z,12.52
2023-01-17T19:30:17.618Z,11.20
2023-01-17T19:32:46.554Z,9.73
2023-01-17T19:35:16.132Z,20.90
2023-01-17T19:37:47.711Z,16.52
2023-01-17T19:40:16.502Z,12.45
2023-01-17T19:42:44.848Z,20.55
2023-01-17T19:45:14.590Z,19.00
2023-01-17T19:47:42.885Z,18.83
2023-01-17T19:50:12.280Z,17.10
2023-01-17T19:52:42.315Z,21.23
2023-01-17T19:55:13.952Z,23.33
2023-01-17T19:57:42.371Z,15.73
2023-01-17T20:00:14.054Z,11.88
2023-01-17T20:02:44.725Z,14.68
2023-01-17T20:05:14.010Z,16.52
2023-01-17T20:07:42.281Z,21.30
2023-01-17T20:10:12.941Z,20.25
2023-01-17T20:12:42.053Z,18.80
2023-01-17T20:15:10.925Z,14.77
2023-01-17T20:17:39.282Z,20.63
2023-01-17T20:20:12.893Z,13.23
2023-01-17T20:22:42.935Z,14.70
2023-01-17T20:25:13.300Z,16.70
2023-01-17T20:27:42.958Z,24.67
2023-01-17T20:30:20.083Z,21.73
2023-01-17T20:32:49.474Z,15.05
2023-01-17T20:35:18.200Z,21.42
2023-01-17T20:37:46.558Z,17.08
2023-01-17T20:40:17.702Z,12.23
2023-01-17T20:42:46.012Z,21.50
2023-01-17T20:45:17.194Z,17.77
2023-01-17T20:47:45.536Z,13.90
2023-01-17T20:50:13.831Z,22.55
2023-01-17T20:52:42.091Z,19.83
2023-01-17T20:55:10.913Z,25.08
2023-01-17T20:57:40.850Z,19.33
2023-01-17T21:00:10.323Z,18.35
2023-01-17T21:02:38.724Z,8.18
2023-01-17T21:05:10.305Z,20.45
2023-01-17T21:07:40.959Z,16.35
2023-01-17T21:10:10.051Z,18.58
2023-01-17T21:12:38.374Z,21.83
2023-01-17T21:15:10.023Z,11.43
2023-01-17T21:17:43.055Z,25.85
2023-01-17T21:20:15.351Z,16.02
2023-01-17T21:22:43.690Z,10.60
2023-01-17T21:25:12.111Z,14.65
2023-01-17T21:27:41.227Z,14.65
2023-01-17T21:30:12.749Z,21.60
2023-01-17T21:32:41.124Z,15.63
2023-01-17T21:35:10.637Z,17.77
2023-01-17T21:37:41.269Z,19.10
2023-01-17T21:40:11.003Z,19.48
2023-01-17T21:42:39.307Z,18.35
2023-01-17T21:45:10.960Z,17.85
2023-01-17T21:47:44.579Z,19.45
2023-01-17T21:50:25.100Z,20.85
2023-01-17T21:53:00.739Z,18.65
2023-01-17T21:55:46.707Z,13.85
2023-01-17T21:58:35.079Z,22.67
2023-01-17T22:01:11.209Z,17.77
2023-01-17T22:03:41.000Z,17.20
2023-01-17T22:06:10.532Z,18.67
2023-01-17T22:08:39.539Z,19.95
2023-01-17T22:11:09.134Z,16.90
2023-01-17T22:13:37.742Z,11.05
2023-01-17T22:16:10.972Z,14.13
2023-01-17T22:21:11.918Z,20.27
2023-01-17T22:23:41.110Z,22.88
2023-01-17T22:26:11.932Z,20.98
2023-01-17T22:28:40.810Z,13.10
2023-01-17T22:31:10.902Z,24.33
2023-01-17T22:33:41.861Z,27.48
2023-01-17T22:36:13.793Z,21.75
2023-01-17T22:38:43.144Z,19.63
2023-01-17T22:41:13.240Z,24.48
2023-01-17T22:43:42.908Z,18.40
2023-01-17T22:46:13.609Z,21.83
2023-01-17T22:48:43.593Z,19.23
2023-01-17T22:51:16.520Z,16.42
2023-01-17T22:53:45.833Z,14.40
2023-01-17T22:56:16.095Z,19.13
2023-01-17T22:58:45.126Z,16.77
2023-01-17T23:01:14.659Z,14.93
2023-01-17T23:03:45.907Z,16.15
2023-01-17T23:06:16.425Z,16.40
2023-01-17T23:08:46.270Z,21.33
2023-01-17T23:11:42.839Z,21.20
2023-01-17T23:14:18.497Z,13.88
2023-01-17T23:17:10.441Z,20.02
2023-01-17T23:19:41.697Z,17.73
2023-01-17T23:22:17.615Z,16.95
2023-01-17T23:24:48.205Z,18.83
2023-01-17T23:27:35.992Z,16.67
2023-01-17T23:30:06.197Z,16.45
2023-01-17T23:32:34.946Z,20.88
2023-01-17T23:35:04.826Z,25.38
2023-01-17T23:38:02.682Z,15.00
2023-01-17T23:40:32.923Z,23.77
2023-01-17T23:43:18.795Z,19.02
2023-01-17T23:45:47.120Z,15.23
2023-01-17T23:48:15.741Z,23.35
2023-01-17T23:50:47.311Z,19.05
2023-01-17T23:53:22.530Z,14.70
2023-01-17T23:55:52.500Z,23.85
2023-01-17T23:58:23.965Z,19.15
